createdAt,value
2022-08-01T00:00:10.758Z,2.72
2022-08-01T00:01:16.862Z,2.25
2022-08-01T00:02:20.824Z,5.32
2022-08-01T00:03:24.754Z,3.15
2022-08-01T00:04:28.540Z,3.15
2022-08-01T00:05:32.605Z,3.67
2022-08-01T00:06:36.422Z,4.65
2022-08-01T00:07:40.460Z,2.67
2022-08-01T00:08:44.075Z,2.05
2022-08-01T00:09:47.977Z,2.83
2022-08-01T00:10:52.010Z,1.85
2022-08-01T00:11:59.778Z,2.65
2022-08-01T00:13:04.175Z,3.15
2022-08-01T00:14:08.037Z,2.00
2022-08-01T00:15:17.024Z,2.60
2022-08-01T00:16:23.895Z,2.42
2022-08-01T00:17:27.935Z,2.42
2022-08-01T00:18:31.884Z,3.03
2022-08-01T00:19:36.213Z,2.10
2022-08-01T00:20:40.287Z,7.07
2022-08-01T00:21:51.964Z,2.90
2022-08-01T00:22:56.282Z,1.85
2022-08-01T00:24:00.459Z,1.73
2022-08-01T00:25:06.617Z,2.40
2022-08-01T00:26:10.634Z,4.40
2022-08-01T00:27:14.855Z,3.70
2022-08-01T00:28:18.875Z,2.45
2022-08-01T00:30:10.841Z,3.08
2022-08-01T00:30:46.725Z,2.45
2022-08-01T00:31:50.831Z,4.85
2022-08-01T00:32:54.696Z,4.68
2022-08-01T00:33:58.492Z,2.25
2022-08-01T00:35:02.600Z,3.92
2022-08-01T00:36:06.685Z,2.47
2022-08-01T00:37:14.033Z,3.65
2022-08-01T00:38:19.979Z,1.98
2022-08-01T00:39:23.941Z,2.65
2022-08-01T00:40:27.931Z,2.45
2022-08-01T00:41:32.029Z,2.70
2022-08-01T00:42:40.236Z,2.60
2022-08-01T00:43:46.884Z,3.03
2022-08-01T00:44:50.702Z,2.83
2022-08-01T00:45:54.471Z,2.83
2022-08-01T00:46:58.227Z,2.40
2022-08-01T00:48:02.231Z,2.42
2022-08-01T00:49:07.472Z,3.08
2022-08-01T00:50:15.352Z,3.00
2022-08-01T00:51:19.609Z,2.17
2022-08-01T00:52:23.627Z,2.65
2022-08-01T00:53:27.968Z,5.53
2022-08-01T00:54:52.549Z,2.53
2022-08-01T00:55:57.340Z,5.55
2022-08-01T00:57:01.423Z,2.70
2022-08-01T00:58:06.674Z,2.40
2022-08-01T00:59:14.103Z,2.35
2022-08-01T01:00:18.739Z,2.67
2022-08-01T01:01:39.252Z,2.60
2022-08-01T01:02:44.973Z,4.43
2022-08-01T01:03:59.138Z,2.97
2022-08-01T01:05:04.986Z,2.25
2022-08-01T01:06:35.368Z,3.45
2022-08-01T01:08:09.637Z,4.05
2022-08-01T01:09:46.310Z,3.05
2022-08-01T01:11:02.551Z,2.70
2022-08-01T01:12:39.113Z,3.17
2022-08-01T01:13:54.201Z,2.33
2022-08-01T01:15:32.421Z,3.50
2022-08-01T01:16:42.276Z,2.42
2022-08-01T01:18:08.455Z,2.70
2022-08-01T01:19:22.189Z,3.20
2022-08-01T01:20:35.312Z,3.60
2022-08-01T01:22:18.988Z,3.97
2022-08-01T01:24:18.729Z,3.83
2022-08-01T01:25:56.328Z,2.42
2022-08-01T01:27:25.509Z,3.53
2022-08-01T01:28:51.700Z,3.30
2022-08-01T01:30:01.176Z,5.00
2022-08-01T01:31:12.056Z,5.63
2022-08-01T01:32:37.390Z,2.90
2022-08-01T01:33:45.357Z,2.65
2022-08-01T01:34:55.464Z,6.30
2022-08-01T01:36:11.677Z,2.95
2022-08-01T01:37:21.890Z,2.78
2022-08-01T01:38:35.898Z,3.75
2022-08-01T01:39:45.330Z,2.42
2022-08-01T01:41:00.311Z,2.88
2022-08-01T01:42:08.194Z,3.10
2022-08-01T01:43:14.386Z,3.28
2022-08-01T01:44:20.055Z,2.33
2022-08-01T01:45:27.803Z,3.72
2022-08-01T01:46:34.012Z,3.08
2022-08-01T01:47:41.122Z,2.67
2022-08-01T01:48:47.676Z,3.38
2022-08-01T01:49:54.299Z,4.20
2022-08-01T01:50:59.506Z,2.10
2022-08-01T01:52:05.649Z,2.28
2022-08-01T01:53:15.238Z,2.90
2022-08-01T01:54:23.253Z,2.17
2022-08-01T01:55:28.415Z,3.15
2022-08-01T01:56:34.010Z,3.55
2022-08-01T01:57:42.420Z,3.65
2022-08-01T01:58:52.467Z,2.83
2022-08-01T02:00:00.566Z,2.30
2022-08-01T02:01:05.624Z,2.40
2022-08-01T02:02:20.413Z,2.38
2022-08-01T02:03:27.834Z,2.13
2022-08-01T02:04:34.081Z,3.45
2022-08-01T02:05:40.913Z,3.17
2022-08-01T02:06:48.125Z,2.70
2022-08-01T02:07:59.633Z,3.08
2022-08-01T02:09:04.282Z,2.58
2022-08-01T02:10:11.494Z,7.78
2022-08-01T02:11:22.524Z,2.85
2022-08-01T02:12:27.419Z,3.20
2022-08-01T02:13:36.607Z,3.15
2022-08-01T02:14:43.176Z,3.10
2022-08-01T02:15:59.537Z,4.15
2022-08-01T02:17:07.841Z,2.95
2022-08-01T02:18:13.875Z,2.92
2022-08-01T02:19:21.745Z,4.45
2022-08-01T02:20:29.797Z,4.25
2022-08-01T02:22:02.047Z,3.47
2022-08-01T02:23:14.419Z,2.20
2022-08-01T02:24:36.403Z,2.25
2022-08-01T02:26:09.137Z,2.88
2022-08-01T02:27:22.022Z,2.45
2022-08-01T02:28:46.880Z,2.72
2022-08-01T02:30:06.068Z,3.92
2022-08-01T02:31:17.950Z,4.00
2022-08-01T02:33:01.764Z,3.10
2022-08-01T02:34:14.209Z,3.53
2022-08-01T02:35:31.976Z,6.32
2022-08-01T02:36:38.459Z,3.33
2022-08-01T02:37:47.050Z,3.72
2022-08-01T02:38:52.739Z,3.92
2022-08-01T02:39:57.739Z,5.65
2022-08-01T02:41:14.225Z,2.97
2022-08-01T02:42:20.913Z,5.63
2022-08-01T02:43:30.253Z,4.10
2022-08-01T02:44:40.880Z,3.20
2022-08-01T02:46:01.738Z,3.10
2022-08-01T02:47:06.059Z,3.92
2022-08-01T02:48:13.735Z,2.83
2022-08-01T02:49:22.573Z,3.67
2022-08-01T02:50:29.664Z,8.50
2022-08-01T02:51:37.218Z,4.30
2022-08-01T02:52:45.553Z,4.57
2022-08-01T02:53:53.206Z,4.25
2022-08-01T02:54:59.751Z,5.18
2022-08-01T02:56:07.572Z,3.42
2022-08-01T02:57:14.156Z,7.80
2022-08-01T02:58:21.536Z,4.00
2022-08-01T02:59:38.345Z,13.50
2022-08-01T03:00:48.512Z,10.77
2022-08-01T03:01:56.683Z,8.30
2022-08-01T03:03:04.690Z,5.75
2022-08-01T03:04:09.776Z,5.47
2022-08-01T03:05:18.961Z,7.18
2022-08-01T03:06:23.798Z,7.72
2022-08-01T03:07:34.330Z,3.50
2022-08-01T03:08:40.736Z,5.15
2022-08-01T03:09:49.010Z,7.00
2022-08-01T03:10:56.494Z,8.23
2022-08-01T03:12:05.692Z,5.38
2022-08-01T03:13:13.123Z,4.70
2022-08-01T03:14:21.557Z,12.07
2022-08-01T03:15:31.759Z,6.90
2022-08-01T03:16:40.008Z,9.05
2022-08-01T03:17:48.172Z,9.40
2022-08-01T03:18:57.359Z,4.93
2022-08-01T03:20:06.029Z,6.28
2022-08-01T03:21:13.184Z,4.88
2022-08-01T03:22:18.412Z,5.13
2022-08-01T03:23:29.149Z,4.57
2022-08-01T03:24:50.979Z,7.05
2022-08-01T03:25:56.922Z,5.68
2022-08-01T03:27:01.329Z,7.15
2022-08-01T03:28:09.288Z,5.75
2022-08-01T03:29:21.109Z,5.80
2022-08-01T03:30:27.993Z,10.20
2022-08-01T03:31:32.895Z,6.68
2022-08-01T03:32:36.885Z,6.28
2022-08-01T03:33:41.240Z,7.93
2022-08-01T03:34:45.315Z,5.95
2022-08-01T03:35:56.143Z,8.45
2022-08-01T03:37:28.268Z,7.38
2022-08-01T03:38:37.243Z,5.72
2022-08-01T03:39:59.463Z,5.13
2022-08-01T03:41:25.103Z,7.85
2022-08-01T03:42:53.658Z,5.80
2022-08-01T03:44:06.534Z,5.35
2022-08-01T03:45:17.129Z,5.90
2022-08-01T03:46:30.930Z,7.82
2022-08-01T03:47:43.522Z,7.00
2022-08-01T03:48:56.682Z,7.72
2022-08-01T03:50:03.095Z,9.43
2022-08-01T03:51:10.272Z,7.40
2022-08-01T03:52:16.357Z,8.40
2022-08-01T03:53:27.232Z,4.15
2022-08-01T03:54:36.040Z,6.20
2022-08-01T03:55:43.599Z,5.78
2022-08-01T03:56:51.132Z,6.43
2022-08-01T03:57:56.854Z,5.22
2022-08-01T03:59:04.446Z,7.50
2022-08-01T04:00:10.356Z,4.30
2022-08-01T04:01:16.247Z,3.63
2022-08-01T04:02:22.861Z,6.28
2022-08-01T04:03:28.598Z,11.57
2022-08-01T04:04:32.747Z,6.47
2022-08-01T04:05:36.903Z,4.72
2022-08-01T04:06:41.934Z,5.07
2022-08-01T04:07:57.551Z,6.47
2022-08-01T04:09:01.711Z,5.38
2022-08-01T04:10:07.775Z,4.10
2022-08-01T04:11:12.009Z,4.07
2022-08-01T04:12:15.854Z,3.30
2022-08-01T04:13:19.666Z,4.60
2022-08-01T04:14:23.608Z,4.13
2022-08-01T04:15:27.467Z,6.80
2022-08-01T04:16:31.285Z,3.40
2022-08-01T04:17:35.100Z,4.50
2022-08-01T04:18:38.843Z,5.68
2022-08-01T04:19:43.766Z,5.10
2022-08-01T04:20:50.333Z,3.33
2022-08-01T04:21:54.354Z,7.30
2022-08-01T04:22:58.394Z,4.28
2022-08-01T04:24:16.164Z,4.15
2022-08-01T04:25:37.605Z,5.15
2022-08-01T04:26:45.843Z,5.78
2022-08-01T04:27:54.006Z,4.93
2022-08-01T04:28:58.310Z,8.60
2022-08-01T04:30:02.728Z,3.40
2022-08-01T04:31:13.458Z,5.18
2022-08-01T04:32:21.673Z,4.00
2022-08-01T04:33:29.421Z,3.97
2022-08-01T04:34:34.934Z,5.10
2022-08-01T04:36:02.018Z,4.20
2022-08-01T04:37:13.290Z,4.10
2022-08-01T04:38:28.587Z,5.38
2022-08-01T04:39:50.304Z,5.15
2022-08-01T04:40:57.616Z,4.18
2022-08-01T04:42:05.025Z,4.78
2022-08-01T04:43:09.716Z,8.98
2022-08-01T04:44:14.943Z,6.22
2022-08-01T04:45:19.780Z,5.25
2022-08-01T04:46:24.812Z,4.45
2022-08-01T04:47:30.550Z,5.93
2022-08-01T04:48:37.285Z,4.57
2022-08-01T04:49:48.636Z,6.20
2022-08-01T04:50:53.064Z,4.43
2022-08-01T04:52:01.461Z,6.07
2022-08-01T04:53:06.264Z,5.80
2022-08-01T04:54:10.016Z,11.00
2022-08-01T04:55:14.040Z,6.88
2022-08-01T04:56:18.852Z,4.55
2022-08-01T04:57:22.606Z,4.65
2022-08-01T04:58:26.428Z,5.30
2022-08-01T04:59:41.346Z,7.53
2022-08-01T05:00:45.555Z,6.75
2022-08-01T05:01:52.496Z,5.00
2022-08-01T05:02:56.426Z,6.35
2022-08-01T05:04:00.215Z,5.45
2022-08-01T05:05:07.284Z,4.63
2022-08-01T05:06:11.410Z,6.70
2022-08-01T05:07:16.861Z,6.18
2022-08-01T05:08:20.749Z,5.40
2022-08-01T05:09:27.124Z,8.98
2022-08-01T05:10:35.822Z,5.80
2022-08-01T05:11:39.907Z,8.35
2022-08-01T05:12:43.765Z,4.93
2022-08-01T05:13:47.494Z,5.63
2022-08-01T05:14:52.276Z,7.50
2022-08-01T05:15:55.902Z,4.53
2022-08-01T05:17:05.451Z,4.97
2022-08-01T05:18:10.270Z,7.22
2022-08-01T05:19:14.256Z,7.43
2022-08-01T05:20:18.209Z,5.28
2022-08-01T05:21:22.255Z,13.23
2022-08-01T05:22:26.982Z,8.40
2022-08-01T05:23:42.235Z,8.90
2022-08-01T05:24:49.723Z,5.38
2022-08-01T05:25:57.627Z,5.82
2022-08-01T05:27:03.342Z,5.93
2022-08-01T05:28:07.524Z,6.57
2022-08-01T05:29:12.811Z,7.57
2022-08-01T05:30:17.234Z,7.38
2022-08-01T05:31:21.015Z,7.40
2022-08-01T05:32:24.949Z,7.00
2022-08-01T05:33:29.317Z,7.65
2022-08-01T05:34:33.461Z,7.30
2022-08-01T05:35:47.887Z,5.43
2022-08-01T05:36:56.917Z,7.78
2022-08-01T05:38:01.841Z,6.80
2022-08-01T05:39:06.319Z,4.90
2022-08-01T05:40:10.780Z,7.15
2022-08-01T05:41:14.643Z,5.45
2022-08-01T05:42:19.279Z,5.78
2022-08-01T05:43:28.193Z,7.25
2022-08-01T05:44:33.370Z,7.63
2022-08-01T05:45:37.798Z,6.43
2022-08-01T05:46:41.837Z,5.15
2022-08-01T05:47:45.644Z,5.10
2022-08-01T05:48:49.638Z,9.32
2022-08-01T05:49:54.410Z,12.07
2022-08-01T05:50:59.061Z,5.82
2022-08-01T05:52:03.622Z,8.35
2022-08-01T05:53:07.990Z,8.65
2022-08-01T05:54:12.299Z,5.57
2022-08-01T05:55:16.314Z,5.90
2022-08-01T05:56:23.065Z,6.50
2022-08-01T05:57:28.081Z,6.18
2022-08-01T05:58:33.774Z,4.47
2022-08-01T05:59:37.672Z,9.73
2022-08-01T06:00:41.769Z,8.35
2022-08-01T06:01:46.162Z,5.55
2022-08-01T06:02:50.653Z,6.30
2022-08-01T06:03:55.578Z,4.22
2022-08-01T06:05:00.265Z,5.65
2022-08-01T06:06:05.554Z,3.35
2022-08-01T06:07:09.955Z,4.30
2022-08-01T06:08:14.143Z,7.22
2022-08-01T06:09:18.485Z,5.75
2022-08-01T06:10:22.891Z,6.28
2022-08-01T06:11:26.640Z,4.53
2022-08-01T06:12:35.224Z,5.47
2022-08-01T06:13:44.894Z,4.50
2022-08-01T06:14:52.771Z,3.92
2022-08-01T06:15:56.694Z,4.63
2022-08-01T06:17:00.584Z,3.15
2022-08-01T06:18:05.962Z,3.83
2022-08-01T06:19:09.975Z,5.97
2022-08-01T06:20:13.933Z,4.72
2022-08-01T06:21:17.815Z,5.47
2022-08-01T06:22:21.601Z,3.25
2022-08-01T06:23:32.355Z,5.78
2022-08-01T06:24:36.711Z,3.90
2022-08-01T06:25:40.800Z,4.03
2022-08-01T06:26:44.515Z,4.82
2022-08-01T06:27:48.639Z,6.38
2022-08-01T06:28:52.512Z,5.50
2022-08-01T06:29:56.676Z,2.83
2022-08-01T06:31:00.836Z,3.05
2022-08-01T06:32:05.765Z,4.72
2022-08-01T06:33:10.062Z,5.13
2022-08-01T06:34:13.884Z,3.33
2022-08-01T06:35:17.848Z,5.00
2022-08-01T06:36:21.690Z,3.17
2022-08-01T06:37:29.379Z,3.33
2022-08-01T06:38:33.191Z,3.33
2022-08-01T06:39:37.013Z,6.07
2022-08-01T06:40:41.011Z,2.45
2022-08-01T06:41:47.424Z,4.20
2022-08-01T06:42:51.845Z,3.55
2022-08-01T06:43:55.721Z,4.55
2022-08-01T06:44:59.744Z,3.22
2022-08-01T06:46:03.696Z,9.27
2022-08-01T06:47:07.608Z,5.72
2022-08-01T06:48:11.728Z,8.52
2022-08-01T06:49:15.768Z,2.80
2022-08-01T06:50:20.403Z,2.72
2022-08-01T06:51:24.516Z,4.00
2022-08-01T06:52:29.166Z,2.58
2022-08-01T06:53:36.582Z,5.00
2022-08-01T06:54:40.561Z,3.63
2022-08-01T06:55:45.028Z,4.80
2022-08-01T06:56:49.033Z,2.92
2022-08-01T06:57:54.656Z,4.38
2022-08-01T06:59:02.170Z,2.90
2022-08-01T07:00:13.617Z,7.53
2022-08-01T07:01:18.504Z,6.38
2022-08-01T07:02:23.874Z,4.05
2022-08-01T07:03:53.605Z,3.20
2022-08-01T07:04:52.052Z,3.17
2022-08-01T07:05:55.874Z,2.33
2022-08-01T07:06:59.982Z,2.95
2022-08-01T07:08:04.281Z,2.40
2022-08-01T07:09:12.256Z,2.53
2022-08-01T07:10:18.674Z,3.63
2022-08-01T07:11:25.334Z,3.05
2022-08-01T07:12:29.196Z,3.53
2022-08-01T07:13:36.666Z,4.47
2022-08-01T07:14:47.706Z,2.75
2022-08-01T07:15:52.144Z,6.07
2022-08-01T07:16:56.049Z,3.35
2022-08-01T07:18:02.669Z,4.35
2022-08-01T07:19:06.512Z,3.92
2022-08-01T07:20:16.128Z,4.93
2022-08-01T07:21:40.613Z,2.78
2022-08-01T07:22:47.455Z,5.55
2022-08-01T07:23:52.022Z,6.45
2022-08-01T07:24:59.807Z,2.60
2022-08-01T07:26:05.683Z,5.38
2022-08-01T07:27:23.936Z,8.52
2022-08-01T07:28:30.407Z,2.60
2022-08-01T07:29:34.318Z,4.57
2022-08-01T07:30:38.429Z,2.90
2022-08-01T07:31:42.704Z,4.65
2022-08-01T07:32:46.954Z,1.90
2022-08-01T07:33:52.124Z,2.50
2022-08-01T07:34:56.743Z,2.97
2022-08-01T07:36:02.436Z,2.38
2022-08-01T07:37:06.563Z,1.05
2022-08-01T07:38:12.777Z,6.55
2022-08-01T07:39:17.570Z,2.95
2022-08-01T07:40:21.938Z,1.45
2022-08-01T07:41:52.792Z,3.08
2022-08-01T07:42:49.704Z,1.52
2022-08-01T07:43:58.721Z,1.50
2022-08-01T07:45:05.055Z,0.95
2022-08-01T07:46:09.023Z,3.15
2022-08-01T07:47:12.948Z,2.72
2022-08-01T07:48:16.816Z,3.72
2022-08-01T07:49:22.943Z,3.33
2022-08-01T07:50:26.970Z,1.13
2022-08-01T07:51:31.130Z,2.67
2022-08-01T07:52:35.277Z,1.45
2022-08-01T07:53:39.061Z,4.20
2022-08-01T07:54:42.961Z,1.67
2022-08-01T07:55:46.953Z,1.58
2022-08-01T07:56:52.211Z,2.72
2022-08-01T07:57:56.211Z,1.13
2022-08-01T07:59:00.327Z,0.82
2022-08-01T08:00:07.540Z,1.50
2022-08-01T08:01:11.526Z,2.83
2022-08-01T08:02:15.702Z,1.40
2022-08-01T08:03:19.641Z,2.65
2022-08-01T08:04:23.598Z,4.85
2022-08-01T08:05:58.424Z,2.17
2022-08-01T08:06:53.427Z,0.90
2022-08-01T08:07:57.269Z,1.17
2022-08-01T08:09:01.294Z,2.08
2022-08-01T08:10:07.144Z,2.78
2022-08-01T08:11:11.501Z,1.70
2022-08-01T08:12:15.500Z,3.67
2022-08-01T08:13:19.619Z,6.35
2022-08-01T08:14:32.211Z,1.95
2022-08-01T08:15:36.488Z,3.92
2022-08-01T08:16:40.678Z,2.33
2022-08-01T08:17:44.609Z,1.73
2022-08-01T08:18:58.949Z,1.63
2022-08-01T08:20:05.308Z,2.15
2022-08-01T08:21:12.921Z,1.88
2022-08-01T08:22:16.779Z,1.65
2022-08-01T08:23:42.749Z,1.88
2022-08-01T08:24:47.660Z,0.82
2022-08-01T08:25:51.843Z,3.80
2022-08-01T08:26:59.069Z,1.02
2022-08-01T08:28:02.991Z,1.38
2022-08-01T08:29:08.985Z,0.98
2022-08-01T08:30:13.348Z,1.23
2022-08-01T08:31:25.330Z,1.75
2022-08-01T08:32:40.990Z,1.10
2022-08-01T08:33:44.749Z,5.10
2022-08-01T08:34:48.794Z,2.72
2022-08-01T08:35:55.718Z,3.00
2022-08-01T08:37:01.069Z,1.60
2022-08-01T08:38:05.018Z,4.80
2022-08-01T08:39:11.972Z,3.42
2022-08-01T08:40:17.368Z,1.88
2022-08-01T08:41:21.887Z,3.22
2022-08-01T08:42:26.727Z,2.03
2022-08-01T08:43:30.536Z,3.63
2022-08-01T08:44:34.409Z,1.42
2022-08-01T08:45:58.661Z,2.40
2022-08-01T08:47:06.463Z,1.17
2022-08-01T08:48:14.911Z,1.05
2022-08-01T08:49:23.288Z,3.45
2022-08-01T08:50:28.813Z,1.88
2022-08-01T08:51:35.517Z,2.55
2022-08-01T08:52:41.657Z,2.25
2022-08-01T08:53:47.987Z,1.48
2022-08-01T08:54:54.054Z,1.23
2022-08-01T08:55:59.451Z,2.45
2022-08-01T08:57:03.458Z,1.27
2022-08-01T08:58:07.558Z,0.93
2022-08-01T08:59:15.039Z,2.63
2022-08-01T09:00:18.957Z,0.70
2022-08-01T09:01:23.139Z,1.75
2022-08-01T09:02:27.052Z,1.65
2022-08-01T09:03:31.410Z,0.90
2022-08-01T09:04:36.570Z,1.52
2022-08-01T09:05:40.601Z,1.00
2022-08-01T09:06:44.544Z,1.02
2022-08-01T09:07:48.486Z,1.38
2022-08-01T09:08:52.480Z,2.22
2022-08-01T09:09:56.367Z,1.33
2022-08-01T09:11:00.873Z,1.08
2022-08-01T09:12:05.211Z,0.65
2022-08-01T09:13:15.671Z,1.00
2022-08-01T09:14:28.361Z,0.90
2022-08-01T09:15:56.505Z,4.75
2022-08-01T09:17:11.959Z,0.98
2022-08-01T09:18:45.983Z,1.75
2022-08-01T09:19:59.218Z,2.58
2022-08-01T09:21:10.746Z,1.95
2022-08-01T09:22:19.665Z,2.53
2022-08-01T09:23:55.050Z,1.20
2022-08-01T09:25:11.883Z,1.23
2022-08-01T09:26:35.362Z,1.67
2022-08-01T09:27:44.124Z,1.95
2022-08-01T09:28:50.274Z,1.02
2022-08-01T09:30:01.415Z,0.65
2022-08-01T09:31:12.429Z,6.15
2022-08-01T09:32:16.665Z,1.38
2022-08-01T09:33:21.794Z,1.15
2022-08-01T09:34:32.302Z,1.50
2022-08-01T09:35:43.711Z,1.08
2022-08-01T09:36:54.400Z,5.18
2022-08-01T09:38:28.562Z,1.02
2022-08-01T09:39:38.733Z,1.05
2022-08-01T09:40:58.846Z,2.50
2022-08-01T09:42:21.495Z,2.22
2022-08-01T09:43:33.363Z,1.92
2022-08-01T09:44:54.612Z,1.27
2022-08-01T09:46:01.255Z,1.38
2022-08-01T09:47:07.763Z,4.68
2022-08-01T09:48:17.361Z,2.25
2022-08-01T09:49:50.590Z,1.02
2022-08-01T09:51:04.041Z,0.63
2022-08-01T09:52:20.509Z,1.45
2022-08-01T09:53:51.839Z,0.90
2022-08-01T09:55:07.438Z,1.50
2022-08-01T09:56:14.982Z,1.08
2022-08-01T09:57:21.178Z,1.35
2022-08-01T09:58:25.325Z,2.88
2022-08-01T09:59:57.872Z,2.88
2022-08-01T10:01:05.008Z,1.33
2022-08-01T10:02:16.799Z,0.90
2022-08-01T10:03:30.718Z,1.15
2022-08-01T10:04:35.898Z,1.10
2022-08-01T10:05:44.152Z,2.17
2022-08-01T10:07:08.744Z,0.77
2022-08-01T10:08:13.832Z,1.20
2022-08-01T10:09:39.689Z,1.00
2022-08-01T10:11:13.581Z,0.95
2022-08-01T10:12:27.442Z,0.85
2022-08-01T10:13:36.348Z,1.10
2022-08-01T10:14:42.732Z,1.25
2022-08-01T10:15:50.881Z,1.88
2022-08-01T10:17:02.826Z,1.35
2022-08-01T10:18:16.655Z,1.17
2022-08-01T10:19:31.673Z,0.73
2022-08-01T10:20:36.425Z,1.63
2022-08-01T10:21:56.138Z,1.15
2022-08-01T10:23:06.961Z,1.85
2022-08-01T10:24:13.530Z,1.10
2022-08-01T10:25:41.837Z,1.17
2022-08-01T10:26:48.305Z,1.13
2022-08-01T10:27:58.029Z,1.10
2022-08-01T10:29:03.934Z,1.10
2022-08-01T10:30:29.994Z,1.15
2022-08-01T10:31:35.499Z,3.83
2022-08-01T10:32:43.793Z,0.85
2022-08-01T10:33:55.208Z,2.28
2022-08-01T10:35:06.698Z,1.65
2022-08-01T10:36:12.246Z,1.38
2022-08-01T10:37:18.402Z,1.30
2022-08-01T10:38:22.544Z,1.20
2022-08-01T10:39:31.598Z,0.70
2022-08-01T10:40:39.810Z,0.98
2022-08-01T10:41:44.468Z,1.00
2022-08-01T10:42:48.614Z,2.20
2022-08-01T10:43:53.773Z,1.30
2022-08-01T10:45:00.221Z,1.58
2022-08-01T10:46:06.547Z,2.08
2022-08-01T10:47:17.060Z,1.20
2022-08-01T10:49:06.023Z,1.05
2022-08-01T10:50:28.815Z,1.10
2022-08-01T10:51:52.357Z,1.58
2022-08-01T10:53:23.842Z,2.08
2022-08-01T10:54:52.067Z,2.22
2022-08-01T10:56:04.132Z,1.83
2022-08-01T10:57:09.114Z,1.55
2022-08-01T10:58:15.907Z,2.13
2022-08-01T10:59:49.969Z,2.65
2022-08-01T11:01:26.536Z,1.23
2022-08-01T11:02:35.270Z,5.40
2022-08-01T11:03:56.557Z,1.52
2022-08-01T11:05:14.311Z,1.55
2022-08-01T11:06:24.749Z,1.10
2022-08-01T11:07:53.073Z,1.00
2022-08-01T11:08:59.467Z,0.98
2022-08-01T11:10:45.683Z,0.98
2022-08-01T11:12:06.510Z,3.10
2022-08-01T11:13:12.442Z,2.05
2022-08-01T11:14:25.959Z,1.35
2022-08-01T11:15:31.808Z,1.10
2022-08-01T11:16:39.244Z,1.20
2022-08-01T11:17:54.795Z,2.10
2022-08-01T11:18:59.568Z,1.92
2022-08-01T11:20:14.689Z,0.77
2022-08-01T11:21:56.197Z,1.13
2022-08-01T11:23:02.985Z,0.95
2022-08-01T11:24:08.306Z,1.40
2022-08-01T11:25:14.069Z,0.93
2022-08-01T11:26:29.070Z,1.63
2022-08-01T11:27:34.440Z,1.52
2022-08-01T11:28:40.646Z,1.00
2022-08-01T11:30:13.341Z,1.15
2022-08-01T11:31:17.512Z,1.10
2022-08-01T11:32:33.031Z,1.73
2022-08-01T11:33:50.834Z,1.58
2022-08-01T11:34:57.484Z,1.58
2022-08-01T11:36:15.377Z,1.13
2022-08-01T11:37:31.766Z,1.40
2022-08-01T11:38:38.745Z,1.20
2022-08-01T11:39:43.558Z,1.40
2022-08-01T11:40:47.830Z,1.30
2022-08-01T11:41:53.807Z,1.63
2022-08-01T11:43:17.921Z,1.00
2022-08-01T11:44:28.386Z,1.33
2022-08-01T11:45:52.337Z,1.88
2022-08-01T11:47:07.191Z,1.67
2022-08-01T11:48:29.537Z,1.55
2022-08-01T11:49:48.765Z,1.58
2022-08-01T11:50:56.284Z,1.00
2022-08-01T11:52:30.994Z,2.50
2022-08-01T11:53:36.704Z,1.02
2022-08-01T11:54:51.081Z,2.67
2022-08-01T11:55:56.071Z,2.00
2022-08-01T11:57:04.405Z,1.70
2022-08-01T11:58:21.978Z,1.17
2022-08-01T11:59:27.422Z,1.02
2022-08-01T12:00:43.891Z,2.05
2022-08-01T12:01:51.402Z,1.55
2022-08-01T12:03:08.523Z,0.90
2022-08-01T12:04:12.419Z,1.30
2022-08-01T12:05:24.627Z,0.90
2022-08-01T12:06:31.585Z,1.00
2022-08-01T12:07:38.193Z,2.70
2022-08-01T12:08:42.152Z,1.92
2022-08-01T12:09:47.976Z,2.05
2022-08-01T12:10:52.215Z,1.88
2022-08-01T12:12:07.032Z,6.53
2022-08-01T12:13:11.092Z,2.85
2022-08-01T12:14:22.138Z,4.80
2022-08-01T12:15:32.055Z,2.72
2022-08-01T12:16:35.949Z,1.45
2022-08-01T12:17:59.683Z,1.80
2022-08-01T12:19:04.103Z,1.67
2022-08-01T12:20:12.428Z,4.50
2022-08-01T12:21:37.261Z,2.25
2022-08-01T12:22:45.227Z,1.63
2022-08-01T12:24:03.446Z,1.23
2022-08-01T12:25:19.240Z,0.98
2022-08-01T12:26:28.471Z,3.13
2022-08-01T12:27:38.135Z,0.80
2022-08-01T12:28:42.107Z,1.50
2022-08-01T12:29:47.560Z,1.00
2022-08-01T12:30:51.534Z,1.77
2022-08-01T12:31:55.736Z,2.05
2022-08-01T12:32:59.638Z,1.20
2022-08-01T12:34:30.265Z,1.85
2022-08-01T12:35:35.367Z,1.35
2022-08-01T12:36:39.685Z,1.63
2022-08-01T12:37:49.707Z,1.00
2022-08-01T12:38:55.176Z,1.23
2022-08-01T12:40:00.678Z,0.98
2022-08-01T12:41:05.528Z,1.20
2022-08-01T12:42:11.759Z,1.67
2022-08-01T12:43:29.220Z,5.28
2022-08-01T12:44:34.292Z,0.98
2022-08-01T12:45:56.841Z,1.00
2022-08-01T12:47:03.912Z,1.08
2022-08-01T12:48:15.793Z,1.50
2022-08-01T12:49:20.382Z,1.40
2022-08-01T12:50:29.405Z,1.45
2022-08-01T12:51:33.842Z,2.15
2022-08-01T12:52:39.292Z,1.70
2022-08-01T12:53:43.415Z,2.50
2022-08-01T12:55:25.502Z,3.38
2022-08-01T12:56:39.016Z,2.08
2022-08-01T12:57:46.670Z,0.93
2022-08-01T12:58:50.732Z,3.22
2022-08-01T13:00:05.852Z,1.55
2022-08-01T13:01:13.398Z,1.92
2022-08-01T13:02:17.540Z,2.25
2022-08-01T13:03:22.565Z,1.10
2022-08-01T13:04:26.868Z,1.02
2022-08-01T13:05:46.577Z,3.55
2022-08-01T13:06:55.624Z,1.00
2022-08-01T13:08:02.360Z,1.20
2022-08-01T13:09:14.971Z,2.58
2022-08-01T13:10:32.350Z,1.52
2022-08-01T13:11:36.288Z,4.85
2022-08-01T13:12:42.686Z,1.10
2022-08-01T13:13:52.967Z,1.33
2022-08-01T13:14:56.774Z,1.65
2022-08-01T13:16:12.512Z,1.30
2022-08-01T13:17:37.196Z,2.03
2022-08-01T13:18:41.406Z,1.20
2022-08-01T13:19:48.383Z,2.53
2022-08-01T13:21:09.597Z,1.10
2022-08-01T13:22:13.833Z,1.42
2022-08-01T13:23:23.442Z,4.55
2022-08-01T13:24:44.855Z,1.45
2022-08-01T13:25:57.257Z,0.98
2022-08-01T13:27:05.235Z,1.40
2022-08-01T13:28:39.542Z,2.10
2022-08-01T13:29:43.292Z,1.88
2022-08-01T13:31:08.499Z,1.15
2022-08-01T13:32:29.316Z,2.13
2022-08-01T13:33:54.101Z,1.20
2022-08-01T13:35:08.789Z,1.25
2022-08-01T13:36:14.414Z,1.45
2022-08-01T13:37:18.487Z,3.38
2022-08-01T13:38:43.195Z,2.50
2022-08-01T13:39:48.618Z,4.97
2022-08-01T13:41:00.378Z,1.42
2022-08-01T13:42:04.780Z,1.23
2022-08-01T13:43:09.090Z,2.38
2022-08-01T13:44:13.532Z,2.70
2022-08-01T13:45:17.530Z,2.03
2022-08-01T13:46:26.413Z,1.80
2022-08-01T13:47:33.729Z,1.35
2022-08-01T13:48:37.697Z,1.50
2022-08-01T13:49:41.750Z,1.30
2022-08-01T13:50:57.416Z,1.77
2022-08-01T13:52:11.207Z,1.48
2022-08-01T13:53:15.259Z,1.67
2022-08-01T13:54:19.817Z,1.55
2022-08-01T13:55:23.670Z,1.90
2022-08-01T13:56:31.511Z,1.35
2022-08-01T13:57:36.833Z,3.63
2022-08-01T13:58:41.072Z,2.70
2022-08-01T13:59:44.831Z,1.02
2022-08-01T14:00:48.986Z,1.83
2022-08-01T14:01:53.182Z,1.77
2022-08-01T14:02:57.178Z,1.73
2022-08-01T14:04:01.196Z,2.13
2022-08-01T14:05:05.991Z,1.52
2022-08-01T14:06:10.304Z,2.67
2022-08-01T14:07:14.965Z,2.90
2022-08-01T14:08:19.490Z,1.15
2022-08-01T14:09:24.955Z,1.30
2022-08-01T14:10:36.520Z,1.63
2022-08-01T14:11:40.311Z,1.20
2022-08-01T14:12:50.830Z,1.60
2022-08-01T14:13:54.898Z,1.80
2022-08-01T14:14:58.759Z,1.00
2022-08-01T14:16:03.182Z,1.35
2022-08-01T14:17:07.221Z,1.27
2022-08-01T14:18:11.577Z,1.20
2022-08-01T14:19:17.782Z,1.45
2022-08-01T14:20:23.372Z,2.42
2022-08-01T14:21:27.473Z,2.15
2022-08-01T14:22:31.241Z,1.20
2022-08-01T14:23:35.169Z,1.98
2022-08-01T14:24:39.032Z,1.92
2022-08-01T14:26:02.660Z,1.45
2022-08-01T14:27:07.959Z,2.50
2022-08-01T14:28:12.273Z,1.50
2022-08-01T14:29:16.532Z,1.50
2022-08-01T14:30:20.430Z,1.20
2022-08-01T14:31:24.271Z,1.52
2022-08-01T14:32:28.818Z,1.10
2022-08-01T14:33:34.315Z,1.80
2022-08-01T14:34:38.533Z,2.08
2022-08-01T14:36:01.588Z,2.17
2022-08-01T14:37:07.022Z,1.67
2022-08-01T14:38:12.331Z,1.33
2022-08-01T14:39:25.798Z,1.58
2022-08-01T14:40:29.862Z,1.35
2022-08-01T14:41:33.918Z,2.38
2022-08-01T14:42:40.109Z,1.65
2022-08-01T14:43:44.822Z,1.75
2022-08-01T14:44:49.879Z,1.35
2022-08-01T14:45:55.738Z,1.55
2022-08-01T14:46:59.515Z,1.70
2022-08-01T14:48:03.606Z,3.50
2022-08-01T14:49:07.519Z,3.20
2022-08-01T14:50:16.108Z,2.13
2022-08-01T14:51:19.806Z,2.55
2022-08-01T14:52:23.914Z,1.38
2022-08-01T14:53:27.918Z,1.45
2022-08-01T14:54:32.013Z,1.65
2022-08-01T14:55:40.326Z,1.75
2022-08-01T14:56:46.165Z,4.72
2022-08-01T14:57:52.817Z,1.52
2022-08-01T14:58:56.661Z,1.90
2022-08-01T15:00:00.918Z,1.77
2022-08-01T15:01:06.942Z,0.90
2022-08-01T15:02:12.407Z,1.45
2022-08-01T15:03:16.285Z,1.98
2022-08-01T15:04:20.096Z,1.23
2022-08-01T15:05:24.001Z,1.52
2022-08-01T15:06:28.045Z,1.50
2022-08-01T15:07:31.971Z,2.05
2022-08-01T15:08:36.605Z,1.63
2022-08-01T15:09:41.428Z,1.75
2022-08-01T15:10:45.329Z,4.13
2022-08-01T15:11:49.204Z,1.80
2022-08-01T15:12:53.074Z,2.15
2022-08-01T15:14:16.080Z,1.90
2022-08-01T15:15:20.492Z,1.55
2022-08-01T15:16:25.588Z,2.60
2022-08-01T15:17:35.859Z,1.65
2022-08-01T15:18:39.860Z,2.78
2022-08-01T15:19:44.083Z,2.25